Weather observations for the past three days for
Cancun International Airport
Imperial (Metric)
Date Time (est) Wind (mph) Vis. (mi.) Weather Sky Cond. Temperature (ºF) Relative Humidity Wind Chill (°F) Heat Index (°F) Pressure Precipitation (in)
Air Dwpt 6 hour altimeter (in) sea level (mb) 1 hr 3 hr 6 hr
Max. Min.
30 22:41 E 2 7.00 A Few Clouds FEW015 84.2 78.8 84% 96 30 0.0
30 21:40 E 2 7.00 Partly Cloudy SCT015 84.2 78.8 84% 96 29.99 1015.7
30 20:40 Calm 7.00 Partly Cloudy SCT015 84.2 77 79% 94 29.99 0.0
30 19:40 Calm 7.00 A Few Clouds FEW015 84.2 78.8 84% 96 29.97 0.0
30 18:42 E 6 7.00 Partly Cloudy FEW015 FEW090 SCT250 86 78.8 79% 99 29.96 1014.3
30 17:42 E 7 7.00 Partly Cloudy FEW015 SCT090 SCT250 86 78.8 79% 99 29.95 0.0
30 16:42 E 6 7.00 Partly Cloudy FEW015 SCT090 SCT250 87.8 78.8 75% 102 29.94 0.0
30 15:42 E 5 7.00 Partly Cloudy FEW015 SCT090 SCT250 87.8 78.8 75% 102 29.95 1014.3
30 14:41 E 9 7.00 Partly Cloudy SCT015TCU SCT250 91.4 77 63% 105 29.96 0.0
30 13:42 SE 6 7.00 Partly Cloudy SCT015TCU SCT250 91.4 73.4 56% 100 29.97 0.0
30 12:40 E 6 7.00 Partly Cloudy SCT015TCU SCT250 95 75.2 53% 107 29.99 1015.8
30 11:40 SE 7 7.00 Partly Cloudy SCT015TCU SCT250 91.4 75.2 59% 103 30 0.0
30 10:41 E 6 7.00 Partly Cloudy SCT015 SCT250 91.4 77 63% 105 30.02 0.0
30 09:40 Calm 7.00 Partly Cloudy SCT015 SCT250 87.8 77 70% 100 30.01 1016.4
30 08:40 Calm 7.00 Partly Cloudy SCT250 84.2 77 79% 94 30 0.0
30 07:43 NW 2 7.00 Mostly Cloudy FEW015 BKN250 80.6 77 89% 87 29.99 0.0
30 06:40 NW 5 7.00 Mostly Cloudy BKN250 75.2 75.2 100% 73 29.98 1015.3
30 05:40 NW 2 7.00 Clear SKC 77 75.2 94% 78 29.97 0.0
30 04:40 Calm 7.00 Partly Cloudy SCT015TCU 77 77 100% 78 29.96 0.0
30 03:40 Calm 7.00 Partly Cloudy SCT015 78.8 77 94% 83 29.97 1015.0
30 02:40 NW 3 7.00 A Few Clouds FEW015 78.8 77 94% 83 29.97 0.0
30 01:40 Calm 7.00 A Few Clouds FEW015 82.4 78.8 89% 92 29.98 0.0
30 00:40 Calm 7.00 Partly Cloudy SCT015 84.2 78.8 84% 96 30 1016.1
29 23:40 E 6 7.00 Partly Cloudy SCT015 84.2 78.8 84% 96 30.02 0.0
29 22:41 E 3 7.00 Partly Cloudy SCT015 84.2 78.8 84% 96 30.01 0.0
29 21:40 E 2 7.00 Partly Cloudy SCT250 84.2 78.8 84% 96 29.99 1015.7
29 20:42 Calm 7.00 Partly Cloudy SCT250 84.2 77 79% 94 29.98 0.0
29 19:40 NE 7 7.00 Partly Cloudy SCT250 86 77 75% 97 29.97 0.0
29 18:43 NE 5 7.00 Partly Cloudy SCT250 86 77 75% 97 29.98 1015.2
29 17:40 E 7 7.00 A Few Clouds FEW015 87.8 78.8 75% 102 29.96 0.0
29 16:40 E 9 7.00 Partly Cloudy SCT015 89.6 78.8 71% 105 29.96 0.0
29 15:45 E 9 7.00 Partly Cloudy SCT015 91.4 78.8 67% 108 29.97 1015.3
29 14:43 E 9 7.00 Partly Cloudy SCT015TCU 91.4 78.8 67% 108 29.99 0.0
29 13:40 SE 7 7.00 Partly Cloudy SCT015 91.4 73.4 56% 100 29.99 0.0
29 12:43 E 5 7.00 Partly Cloudy SCT015 91.4 71.6 52% 99 30.02 1016.8
29 11:41 NE 5 7.00 Partly Cloudy SCT015 91.4 77 63% 105 30.03 0.0
29 10:41 E 6 7.00 Partly Cloudy SCT015 91.4 71.6 52% 99 30.03 0.0
29 09:40 E 6 7.00 Mostly Cloudy BKN015 89.6 75.2 63% 100 30.01 1016.6
29 08:41 E 5 7.00 Partly Cloudy SCT015 87.8 75.2 66% 98 30.01 0.0
29 07:47 Calm 7.00 A Few Clouds FEW015 80.6 77 89% 87 30 0.0
29 06:43 NW 2 6.00 A Few Clouds FEW015 77 75.2 94% 78 29.99 1015.7
29 05:41 Calm 6.00 Clear SKC 77 75.2 94% 78 29.98 0.0
29 04:40 NW 3 6.00 Clear SKC 77 75.2 94% 78 29.98 0.0
29 03:45 Calm 6.00 Clear SKC 78.8 75.2 89% 82 29.98 1015.4
29 02:40 NW 5 7.00 A Few Clouds FEW015 78.8 77 94% 83 29.98 0.0
29 01:40 Calm 7.00 A Few Clouds FEW015 82.4 78.8 89% 92 30 0.0
29 00:40 NE 2 7.00 A Few Clouds FEW015 84.2 78.8 84% 96 30.01 1016.4
28 23:40 NE 2 7.00 Partly Cloudy SCT015 84.2 78.8 84% 96 30.03 0.0
28 22:40 NE 3 7.00 A Few Clouds FEW015 84.2 78.8 84% 96 30.03 0.0
28 21:41 E 3 7.00 Clear SKC 84.2 78.8 84% 96 30.02 1016.6
28 20:40 Calm 7.00 Clear SKC 84.2 78.8 84% 96 30 0.0
28 19:41 Calm 7.00 Clear SKC 86 77 75% 97 29.99 0.0
28 18:46 E 5 7.00 Clear SKC 87.8 77 70% 100 29.96 1014.8
28 17:41 E 9 7.00 A Few Clouds FEW015 89.6 77 67% 103 29.96 0.0
28 16:41 E 10 7.00 A Few Clouds FEW015 89.6 77 67% 103 29.97 0.0
28 15:42 E 7 7.00 Partly Cloudy SCT015 SCT100 89.6 78.8 71% 105 29.98 1015.0
28 14:42 E 9 7.00 A Few Clouds FEW015 91.4 78.8 67% 108 29.98 0.0
28 13:47 E 10 7.00 A Few Clouds FEW015CB 91.4 78.8 67% 108 30 0.0
28 12:40 E 9 7.00 A Few Clouds FEW015 91.4 80.6 71% 111 30.02 1016.9
28 11:46 E 5 7.00 A Few Clouds FEW015 91.4 78.8 67% 108 30.04 0.0
28 10:45 Calm 7.00 Partly Cloudy SCT015 89.6 78.8 71% 105 30.04 0.0
28 09:47 SE 6 7.00 Partly Cloudy SCT015 89.6 78.8 71% 105 30.04 1017.2
28 08:47 SE 3 7.00 Partly Cloudy SCT015 87.8 78.8 75% 102 30.03 0.0
28 07:44 E 3 7.00 A Few Clouds FEW015 86 80.6 84% 102 30.02 0.0
28 06:41 Calm 7.00 A Few Clouds FEW015 80.6 78.8 94% 88 30.01 1016.2
28 05:41 Calm 7.00 Partly Cloudy SCT015 78.8 78.8 100% 83 29.99 0.0
28 04:40 Calm 7.00 A Few Clouds FEW015 78.8 77 94% 83 29.98 0.0
28 03:40 E 2 7.00 A Few Clouds FEW015 78.8 78.8 100% 83 29.97 1015.0
28 02:40 Calm 7.00 Partly Cloudy SCT015 78.8 77 94% 83 29.98 0.0
28 01:40 Calm 7.00 A Few Clouds FEW015 80.6 78.8 94% 88 29.99 0.0
28 00:40 E 5 7.00 A Few Clouds FEW015 82.4 78.8 89% 92 30.01 1016.3
27 23:41 Calm 7.00 A Few Clouds FEW015 82.4 78.8 89% 92 30.02 0.0
Date Time (est) Wind (mph) Vis. (mi.) Weather Sky Cond. Air Dwpt Max. Min. Relative Humidity Wind Chill (°F) Heat Index (°F) altimeter (in) sea level (mb) 1 hr 3 hr 6 hr
6 hour
Temperature (ºF) Pressure Precipitation (in)